This is the latest recevied weather packets stored in our database for station/object K7VLL. If no packets are shown the sender has not sent any weather packets the latest 10 day(s).
| Time | Temp. | Humidity | Pressure | Rain* | Wind** | Luminosity | Snow |
|---|---|---|---|---|---|---|---|
| 1778052119 | 15° C | 46% | 1091.1 hPa | 0 mm | - | 0 W/m² | - |
| 1778050314 | 15.56° C | 40% | 1090.9 hPa | 0 mm | - | 0 W/m² | - |
| 1778048514 | 16.11° C | 38% | 1090.6 hPa | 0 mm | - | 0 W/m² | - |
| 1778046715 | 17.78° C | 34% | 1091 hPa | 0 mm | - | 0 W/m² | - |
| 1778044911 | 18.33° C | 34% | 1090.8 hPa | 0 mm | - | 0 W/m² | - |
| 1778043110 | 17.78° C | 35% | 1090.1 hPa | 0 mm | - | 0 W/m² | - |
| 1778041309 | 18.33° C | 36% | 1089.9 hPa | 0 mm | - | 0 W/m² | - |
| 1778039509 | 18.89° C | 34% | 1089.2 hPa | 0 mm | - | 0 W/m² | - |
| 1778037709 | 19.44° C | 35% | 1088.9 hPa | 0 mm | - | 0 W/m² | - |
| 1778035908 | 20° C | 33% | 1087.9 hPa | 0 mm | - | 0 W/m² | - |
| 1778034107 | 20° C | 31% | 1087.4 hPa | 0 mm | - | 0 W/m² | - |
| 1778032303 | 20.56° C | 29% | 1087.2 hPa | 0 mm | - | 9 W/m² | - |
| 1778030501 | 21.67° C | 25% | 1087.1 hPa | 0 mm | - | 28 W/m² | - |
| 1778028696 | 21.67° C | 25% | 1086.9 hPa | 0 mm | - | 37 W/m² | - |
| 1778026891 | 22.78° C | 26% | 1086.7 hPa | 0 mm | - | 123 W/m² | - |
| 1778025091 | 23.89° C | 25% | 1086.3 hPa | 0 mm | - | 249 W/m² | - |
| 1778023286 | 23.89° C | 24% | 1086.2 hPa | 0 mm | - | 341 W/m² | - |
| 1778021485 | 23.89° C | 26% | 1086.1 hPa | 0 mm | - | 433 W/m² | - |
| 1778019683 | 23.89° C | 25% | 1086.5 hPa | 0 mm | - | 511 W/m² | - |
| 1778017879 | 23.89° C | 26% | 1086.8 hPa | 0 mm | - | 153 W/m² | - |
| 1778016079 | 24.44° C | 26% | 1087.1 hPa | 0 mm | - | 655 W/m² | - |
| 1778014279 | 22.78° C | 33% | 1087.9 hPa | 0 mm | - | 262 W/m² | - |
| 1778012476 | 22.22° C | 39% | 1088.2 hPa | 0 mm | - | 687 W/m² | - |
| 1778010671 | 23.33° C | 37% | 1087.9 hPa | 0 mm | - | 143 W/m² | - |
| 1778008871 | 23.33° C | 42% | 1088.3 hPa | 0 mm | - | 722 W/m² | - |
* Rain latest hour (hover to see other rain measurements)
** Current wind speed in m/s (hover to see current wind gust speed)